sensor_id;sensor_type;location;lat;lon;timestamp;pressure;altitude;pressure_sealevel;temperature;humidity
77192;BME280;66172;48.526;8.078;2023-12-14T00:02:10;98644.19;;;7.61;100.00
77192;BME280;66172;48.526;8.078;2023-12-14T00:04:36;98641.16;;;7.62;100.00
77192;BME280;66172;48.526;8.078;2023-12-14T00:07:02;98642.84;;;7.67;100.00
77192;BME280;66172;48.526;8.078;2023-12-14T00:09:27;98646.09;;;7.72;100.00
77192;BME280;66172;48.526;8.078;2023-12-14T00:11:53;98658.19;;;7.63;100.00
77192;BME280;66172;48.526;8.078;2023-12-14T00:14:19;98659.06;;;7.54;100.00
77192;BME280;66172;48.526;8.078;2023-12-14T00:16:45;98662.56;;;7.55;100.00
77192;BME280;66172;48.526;8.078;2023-12-14T00:19:11;98664.50;;;7.67;100.00
77192;BME280;66172;48.526;8.078;2023-12-14T00:21:37;98663.94;;;7.73;100.00
77192;BME280;66172;48.526;8.078;2023-12-14T00:24:03;98671.72;;;7.63;100.00
77192;BME280;66172;48.526;8.078;2023-12-14T00:26:29;98673.06;;;7.81;100.00
77192;BME280;66172;48.526;8.078;2023-12-14T00:28:54;98673.06;;;7.69;100.00
77192;BME280;66172;48.526;8.078;2023-12-14T00:31:20;98676.66;;;7.61;100.00
77192;BME280;66172;48.526;8.078;2023-12-14T00:33:46;98680.94;;;7.62;100.00
77192;BME280;66172;48.526;8.078;2023-12-14T00:36:18;98676.66;;;7.85;100.00
77192;BME280;66172;48.526;8.078;2023-12-14T00:38:45;98683.44;;;7.79;100.00
77192;BME280;66172;48.526;8.078;2023-12-14T00:41:11;98686.03;;;7.75;100.00
77192;BME280;66172;48.526;8.078;2023-12-14T00:43:37;98692.53;;;7.74;100.00
77192;BME280;66172;48.526;8.078;2023-12-14T00:46:03;98694.81;;;7.72;100.00
77192;BME280;66172;48.526;8.078;2023-12-14T00:48:29;98699.78;;;7.70;100.00
77192;BME280;66172;48.526;8.078;2023-12-14T00:50:55;98698.09;;;7.66;100.00
77192;BME280;66172;48.526;8.078;2023-12-14T00:53:21;98709.91;;;7.49;100.00
77192;BME280;66172;48.526;8.078;2023-12-14T00:55:47;98711.34;;;7.46;100.00
77192;BME280;66172;48.526;8.078;2023-12-14T00:58:13;98708.88;;;7.41;100.00
77192;BME280;66172;48.526;8.078;2023-12-14T01:00:39;98711.34;;;7.46;100.00
77192;BME280;66172;48.526;8.078;2023-12-14T01:03:05;98722.75;;;7.52;100.00
77192;BME280;66172;48.526;8.078;2023-12-14T01:05:31;98719.69;;;7.53;100.00
77192;BME280;66172;48.526;8.078;2023-12-14T01:07:57;98725.22;;;7.57;100.00
77192;BME280;66172;48.526;8.078;2023-12-14T01:10:23;98730.31;;;7.59;100.00
77192;BME280;66172;48.526;8.078;2023-12-14T01:12:49;98733.81;;;7.59;100.00
77192;BME280;66172;48.526;8.078;2023-12-14T01:15:15;98730.31;;;7.59;100.00
77192;BME280;66172;48.526;8.078;2023-12-14T01:17:41;98735.69;;;7.46;100.00
77192;BME280;66172;48.526;8.078;2023-12-14T01:20:07;98734.41;;;7.32;100.00
77192;BME280;66172;48.526;8.078;2023-12-14T01:22:33;98742.19;;;7.21;100.00
77192;BME280;66172;48.526;8.078;2023-12-14T01:24:59;98753.34;;;7.32;100.00
77192;BME280;66172;48.526;8.078;2023-12-14T01:27:25;98756.09;;;7.44;100.00
77192;BME280;66172;48.526;8.078;2023-12-14T01:29:51;98754.06;;;7.53;100.00
77192;BME280;66172;48.526;8.078;2023-12-14T01:32:17;98756.91;;;7.57;100.00
77192;BME280;66172;48.526;8.078;2023-12-14T01:34:43;98764.66;;;7.46;100.00
77192;BME280;66172;48.526;8.078;2023-12-14T01:37:09;98761.19;;;7.45;100.00
77192;BME280;66172;48.526;8.078;2023-12-14T01:39:35;98773.44;;;7.43;100.00
77192;BME280;66172;48.526;8.078;2023-12-14T01:42:01;98767.59;;;7.41;100.00
77192;BME280;66172;48.526;8.078;2023-12-14T01:44:26;98768.28;;;7.50;100.00
77192;BME280;66172;48.526;8.078;2023-12-14T01:46:52;98776.19;;;7.55;100.00
77192;BME280;66172;48.526;8.078;2023-12-14T01:49:18;98780.34;;;7.52;100.00
77192;BME280;66172;48.526;8.078;2023-12-14T01:51:44;98790.59;;;7.47;100.00
77192;BME280;66172;48.526;8.078;2023-12-14T01:54:10;98794.31;;;7.54;100.00
77192;BME280;66172;48.526;8.078;2023-12-14T01:56:36;98790.94;;;7.58;100.00
77192;BME280;66172;48.526;8.078;2023-12-14T01:59:02;98790.53;;;7.68;100.00
77192;BME280;66172;48.526;8.078;2023-12-14T02:01:44;98807.28;;;7.49;100.00
77192;BME280;66172;48.526;8.078;2023-12-14T02:04:11;98802.78;;;7.53;100.00
77192;BME280;66172;48.526;8.078;2023-12-14T02:06:37;98807.06;;;7.54;100.00
77192;BME280;66172;48.526;8.078;2023-12-14T02:09:03;98807.94;;;7.46;100.00
77192;BME280;66172;48.526;8.078;2023-12-14T02:11:29;98816.81;;;7.34;100.00
77192;BME280;66172;48.526;8.078;2023-12-14T02:13:55;98815.66;;;7.35;100.00
77192;BME280;66172;48.526;8.078;2023-12-14T02:16:21;98817.72;;;7.38;100.00
77192;BME280;66172;48.526;8.078;2023-12-14T02:18:47;98819.03;;;7.32;100.00
77192;BME280;66172;48.526;8.078;2023-12-14T02:21:13;98821.31;;;7.42;100.00
77192;BME280;66172;48.526;8.078;2023-12-14T02:23:43;98823.00;;;7.35;100.00
77192;BME280;66172;48.526;8.078;2023-12-14T02:26:09;98824.13;;;7.34;100.00
77192;BME280;66172;48.526;8.078;2023-12-14T02:28:35;98830.22;;;7.43;100.00
77192;BME280;66172;48.526;8.078;2023-12-14T02:31:01;98834.22;;;7.45;100.00
77192;BME280;66172;48.526;8.078;2023-12-14T02:33:27;98842.56;;;7.52;100.00
77192;BME280;66172;48.526;8.078;2023-12-14T02:35:53;98836.03;;;7.53;100.00
77192;BME280;66172;48.526;8.078;2023-12-14T02:38:19;98828.81;;;7.45;100.00
77192;BME280;66172;48.526;8.078;2023-12-14T02:40:45;98834.66;;;7.47;100.00
77192;BME280;66172;48.526;8.078;2023-12-14T02:43:11;98838.16;;;7.48;100.00
77192;BME280;66172;48.526;8.078;2023-12-14T02:45:37;98844.50;;;7.52;100.00
77192;BME280;66172;48.526;8.078;2023-12-14T02:48:03;98847.63;;;7.54;100.00
77192;BME280;66172;48.526;8.078;2023-12-14T02:50:29;98843.22;;;7.49;100.00
77192;BME280;66172;48.526;8.078;2023-12-14T02:52:55;98856.22;;;7.56;100.00
77192;BME280;66172;48.526;8.078;2023-12-14T02:55:21;98850.03;;;7.56;100.00
77192;BME280;66172;48.526;8.078;2023-12-14T02:57:46;98850.16;;;7.59;100.00
77192;BME280;66172;48.526;8.078;2023-12-14T03:00:13;98855.09;;;7.57;100.00
77192;BME280;66172;48.526;8.078;2023-12-14T03:02:39;98861.63;;;7.56;100.00
77192;BME280;66172;48.526;8.078;2023-12-14T03:05:05;98862.28;;;7.53;100.00
77192;BME280;66172;48.526;8.078;2023-12-14T03:07:31;98871.78;;;7.59;100.00
77192;BME280;66172;48.526;8.078;2023-12-14T03:09:57;98874.81;;;7.58;100.00
77192;BME280;66172;48.526;8.078;2023-12-14T03:12:23;98873.34;;;7.60;100.00
77192;BME280;66172;48.526;8.078;2023-12-14T03:14:49;98878.75;;;7.60;100.00
77192;BME280;66172;48.526;8.078;2023-12-14T03:17:14;98884.78;;;7.66;100.00
77192;BME280;66172;48.526;8.078;2023-12-14T03:19:42;98878.56;;;7.65;100.00
77192;BME280;66172;48.526;8.078;2023-12-14T03:22:08;98883.84;;;7.62;100.00
77192;BME280;66172;48.526;8.078;2023-12-14T03:24:37;98885.09;;;7.64;100.00
77192;BME280;66172;48.526;8.078;2023-12-14T03:27:04;98893.56;;;7.63;100.00
77192;BME280;66172;48.526;8.078;2023-12-14T03:29:30;98900.94;;;7.53;100.00
77192;BME280;66172;48.526;8.078;2023-12-14T03:31:56;98892.56;;;7.46;100.00
77192;BME280;66172;48.526;8.078;2023-12-14T03:34:25;98894.44;;;7.54;100.00
77192;BME280;66172;48.526;8.078;2023-12-14T03:36:50;98906.84;;;7.56;100.00
77192;BME280;66172;48.526;8.078;2023-12-14T03:39:16;98909.66;;;7.59;100.00
77192;BME280;66172;48.526;8.078;2023-12-14T03:41:43;98908.41;;;7.57;100.00
77192;BME280;66172;48.526;8.078;2023-12-14T03:44:09;98918.66;;;7.51;100.00
77192;BME280;66172;48.526;8.078;2023-12-14T03:46:35;98930.84;;;7.57;100.00
77192;BME280;66172;48.526;8.078;2023-12-14T03:49:01;98926.56;;;7.56;100.00
77192;BME280;66172;48.526;8.078;2023-12-14T03:51:28;98936.38;;;7.61;100.00
77192;BME280;66172;48.526;8.078;2023-12-14T03:53:53;98936.06;;;7.62;100.00
77192;BME280;66172;48.526;8.078;2023-12-14T03:56:19;98948.13;;;7.65;100.00
77192;BME280;66172;48.526;8.078;2023-12-14T03:58:45;98945.91;;;7.67;100.00
77192;BME280;66172;48.526;8.078;2023-12-14T04:01:18;98952.44;;;7.66;100.00
77192;BME280;66172;48.526;8.078;2023-12-14T04:03:45;98962.78;;;7.64;100.00
77192;BME280;66172;48.526;8.078;2023-12-14T04:06:12;98957.84;;;7.66;100.00
77192;BME280;66172;48.526;8.078;2023-12-14T04:08:37;98964.19;;;7.70;100.00
77192;BME280;66172;48.526;8.078;2023-12-14T04:11:04;98964.19;;;7.70;100.00
77192;BME280;66172;48.526;8.078;2023-12-14T04:13:30;98969.09;;;7.68;100.00
77192;BME280;66172;48.526;8.078;2023-12-14T04:15:56;98973.72;;;7.67;100.00
77192;BME280;66172;48.526;8.078;2023-12-14T04:18:23;98974.88;;;7.66;100.00
77192;BME280;66172;48.526;8.078;2023-12-14T04:20:49;98984.22;;;7.69;100.00
77192;BME280;66172;48.526;8.078;2023-12-14T04:23:15;98988.06;;;7.68;100.00
77192;BME280;66172;48.526;8.078;2023-12-14T04:25:41;98988.41;;;7.66;100.00
77192;BME280;66172;48.526;8.078;2023-12-14T04:28:07;98989.31;;;7.70;100.00
77192;BME280;66172;48.526;8.078;2023-12-14T04:30:33;98995.50;;;7.71;100.00
77192;BME280;66172;48.526;8.078;2023-12-14T04:32:59;98990.88;;;7.71;100.00
77192;BME280;66172;48.526;8.078;2023-12-14T04:35:25;98998.69;;;7.73;100.00
77192;BME280;66172;48.526;8.078;2023-12-14T04:37:51;99008.31;;;7.82;100.00
77192;BME280;66172;48.526;8.078;2023-12-14T04:40:16;99008.66;;;7.81;100.00
77192;BME280;66172;48.526;8.078;2023-12-14T04:42:42;99008.66;;;7.81;100.00
77192;BME280;66172;48.526;8.078;2023-12-14T04:45:08;99015.63;;;7.82;100.00
77192;BME280;66172;48.526;8.078;2023-12-14T04:47:38;99020.25;;;7.81;100.00
77192;BME280;66172;48.526;8.078;2023-12-14T04:50:05;99028.25;;;7.78;100.00
77192;BME280;66172;48.526;8.078;2023-12-14T04:52:31;99026.53;;;7.73;100.00
77192;BME280;66172;48.526;8.078;2023-12-14T04:54:57;99034.06;;;7.68;100.00
77192;BME280;66172;48.526;8.078;2023-12-14T04:57:23;99034.66;;;7.73;100.00
77192;BME280;66172;48.526;8.078;2023-12-14T04:59:49;99041.63;;;7.74;100.00
77192;BME280;66172;48.526;8.078;2023-12-14T05:02:15;99050.81;;;7.82;100.00
77192;BME280;66172;48.526;8.078;2023-12-14T05:04:41;99046.16;;;7.70;100.00
77192;BME280;66172;48.526;8.078;2023-12-14T05:07:06;99059.47;;;7.75;100.00
77192;BME280;66172;48.526;8.078;2023-12-14T05:09:32;99066.63;;;7.80;100.00
77192;BME280;66172;48.526;8.078;2023-12-14T05:11:58;99068.22;;;7.81;100.00
77192;BME280;66172;48.526;8.078;2023-12-14T05:14:24;99075.25;;;7.73;100.00
77192;BME280;66172;48.526;8.078;2023-12-14T05:16:50;99079.06;;;7.72;100.00
77192;BME280;66172;48.526;8.078;2023-12-14T05:19:17;99072.69;;;7.77;100.00
77192;BME280;66172;48.526;8.078;2023-12-14T05:21:43;99081.59;;;7.77;100.00
77192;BME280;66172;48.526;8.078;2023-12-14T05:24:09;99093.53;;;7.76;100.00
77192;BME280;66172;48.526;8.078;2023-12-14T05:26:35;99093.19;;;7.78;100.00
77192;BME280;66172;48.526;8.078;2023-12-14T05:29:01;99095.91;;;7.78;100.00
77192;BME280;66172;48.526;8.078;2023-12-14T05:31:27;99091.28;;;7.78;100.00
77192;BME280;66172;48.526;8.078;2023-12-14T05:33:53;99102.13;;;7.78;100.00
77192;BME280;66172;48.526;8.078;2023-12-14T05:36:18;99105.97;;;7.77;100.00
77192;BME280;66172;48.526;8.078;2023-12-14T05:38:44;99117.56;;;7.78;100.00
77192;BME280;66172;48.526;8.078;2023-12-14T05:41:10;99124.81;;;7.65;100.00
77192;BME280;66172;48.526;8.078;2023-12-14T05:43:36;99122.56;;;7.67;100.00
77192;BME280;66172;48.526;8.078;2023-12-14T05:46:02;99134.31;;;7.71;100.00
77192;BME280;66172;48.526;8.078;2023-12-14T05:48:29;99125.75;;;7.69;100.00
77192;BME280;66172;48.526;8.078;2023-12-14T05:50:56;99141.50;;;7.67;100.00
77192;BME280;66172;48.526;8.078;2023-12-14T05:53:22;99146.59;;;7.69;100.00
77192;BME280;66172;48.526;8.078;2023-12-14T05:55:48;99149.28;;;7.69;100.00
77192;BME280;66172;48.526;8.078;2023-12-14T05:58:14;99152.94;;;7.73;100.00
77192;BME280;66172;48.526;8.078;2023-12-14T06:00:40;99159.94;;;7.74;100.00
77192;BME280;66172;48.526;8.078;2023-12-14T06:03:06;99159.47;;;7.72;100.00
77192;BME280;66172;48.526;8.078;2023-12-14T06:05:32;99156.91;;;7.75;100.00
77192;BME280;66172;48.526;8.078;2023-12-14T06:07:57;99159.94;;;7.74;100.00
77192;BME280;66172;48.526;8.078;2023-12-14T06:10:23;99163.34;;;7.62;100.00
77192;BME280;66172;48.526;8.078;2023-12-14T06:12:49;99167.00;;;7.58;100.00
77192;BME280;66172;48.526;8.078;2023-12-14T06:15:15;99169.41;;;7.59;100.00
77192;BME280;66172;48.526;8.078;2023-12-14T06:17:41;99178.78;;;7.62;100.00
77192;BME280;66172;48.526;8.078;2023-12-14T06:20:08;99180.81;;;7.65;100.00
77192;BME280;66172;48.526;8.078;2023-12-14T06:22:37;99184.19;;;7.62;100.00
77192;BME280;66172;48.526;8.078;2023-12-14T06:25:03;99192.47;;;7.57;100.00
77192;BME280;66172;48.526;8.078;2023-12-14T06:27:30;99195.09;;;7.44;100.00
77192;BME280;66172;48.526;8.078;2023-12-14T06:29:56;99205.41;;;7.51;100.00
77192;BME280;66172;48.526;8.078;2023-12-14T06:32:22;99208.25;;;7.54;100.00
77192;BME280;66172;48.526;8.078;2023-12-14T06:34:48;99216.97;;;7.60;100.00
77192;BME280;66172;48.526;8.078;2023-12-14T06:37:14;99226.44;;;7.45;100.00
77192;BME280;66172;48.526;8.078;2023-12-14T06:39:41;99222.28;;;7.48;100.00
77192;BME280;66172;48.526;8.078;2023-12-14T06:42:07;99227.50;;;7.53;100.00
77192;BME280;66172;48.526;8.078;2023-12-14T06:44:32;99242.97;;;7.52;100.00
77192;BME280;66172;48.526;8.078;2023-12-14T06:46:58;99242.31;;;7.56;100.00
77192;BME280;66172;48.526;8.078;2023-12-14T06:49:25;99245.16;;;7.59;100.00
77192;BME280;66172;48.526;8.078;2023-12-14T06:51:51;99253.59;;;7.58;100.00
77192;BME280;66172;48.526;8.078;2023-12-14T06:54:17;99252.28;;;7.72;100.00
77192;BME280;66172;48.526;8.078;2023-12-14T06:56:43;99255.00;;;7.64;100.00
77192;BME280;66172;48.526;8.078;2023-12-14T06:59:09;99261.06;;;7.61;100.00
77192;BME280;66172;48.526;8.078;2023-12-14T07:01:35;99269.47;;;7.68;100.00
77192;BME280;66172;48.526;8.078;2023-12-14T07:04:01;99273.19;;;7.54;100.00
77192;BME280;66172;48.526;8.078;2023-12-14T07:06:29;99279.06;;;7.57;100.00
77192;BME280;66172;48.526;8.078;2023-12-14T07:08:55;99283.84;;;7.60;100.00
77192;BME280;66172;48.526;8.078;2023-12-14T07:11:20;99283.84;;;7.60;100.00
77192;BME280;66172;48.526;8.078;2023-12-14T07:13:46;99292.28;;;7.49;100.00
77192;BME280;66172;48.526;8.078;2023-12-14T07:16:13;99290.56;;;7.45;100.00
77192;BME280;66172;48.526;8.078;2023-12-14T07:18:41;99305.97;;;7.53;100.00
77192;BME280;66172;48.526;8.078;2023-12-14T07:21:07;99305.50;;;7.60;100.00
77192;BME280;66172;48.526;8.078;2023-12-14T07:23:34;99305.19;;;7.52;100.00
77192;BME280;66172;48.526;8.078;2023-12-14T07:26:00;99317.44;;;7.50;100.00
77192;BME280;66172;48.526;8.078;2023-12-14T07:28:27;99323.13;;;7.57;100.00
77192;BME280;66172;48.526;8.078;2023-12-14T07:30:53;99319.47;;;7.62;100.00
77192;BME280;66172;48.526;8.078;2023-12-14T07:33:19;99323.63;;;7.50;100.00
77192;BME280;66172;48.526;8.078;2023-12-14T07:35:45;99330.97;;;7.41;100.00
77192;BME280;66172;48.526;8.078;2023-12-14T07:38:11;99339.72;;;7.47;100.00
77192;BME280;66172;48.526;8.078;2023-12-14T07:40:37;99341.94;;;7.53;100.00
77192;BME280;66172;48.526;8.078;2023-12-14T07:43:04;99347.03;;;7.55;100.00
77192;BME280;66172;48.526;8.078;2023-12-14T07:45:30;99356.09;;;7.50;100.00
77192;BME280;66172;48.526;8.078;2023-12-14T07:47:56;99353.72;;;7.49;100.00
77192;BME280;66172;48.526;8.078;2023-12-14T07:50:23;99353.09;;;7.52;100.00
77192;BME280;66172;48.526;8.078;2023-12-14T07:52:49;99365.16;;;7.46;100.00
77192;BME280;66172;48.526;8.078;2023-12-14T07:55:14;99360.09;;;7.44;100.00
77192;BME280;66172;48.526;8.078;2023-12-14T07:57:40;99370.41;;;7.42;100.00
77192;BME280;66172;48.526;8.078;2023-12-14T08:00:07;99376.78;;;7.46;100.00
77192;BME280;66172;48.526;8.078;2023-12-14T08:02:36;99386.81;;;7.46;100.00
77192;BME280;66172;48.526;8.078;2023-12-14T08:05:03;99386.97;;;7.49;100.00
77192;BME280;66172;48.526;8.078;2023-12-14T08:07:29;99392.88;;;7.51;100.00
77192;BME280;66172;48.526;8.078;2023-12-14T08:09:55;99400.03;;;7.56;100.00
77192;BME280;66172;48.526;8.078;2023-12-14T08:12:22;99402.44;;;7.49;100.00
77192;BME280;66172;48.526;8.078;2023-12-14T08:14:48;99412.75;;;7.56;100.00
77192;BME280;66172;48.526;8.078;2023-12-14T08:17:14;99410.69;;;7.61;100.00
77192;BME280;66172;48.526;8.078;2023-12-14T08:19:40;99417.53;;;7.59;100.00
77192;BME280;66172;48.526;8.078;2023-12-14T08:22:06;99420.06;;;7.64;100.00
77192;BME280;66172;48.526;8.078;2023-12-14T08:24:33;99424.06;;;7.66;100.00
77192;BME280;66172;48.526;8.078;2023-12-14T08:26:59;99423.56;;;7.64;100.00
77192;BME280;66172;48.526;8.078;2023-12-14T08:29:24;99428.34;;;7.67;100.00
77192;BME280;66172;48.526;8.078;2023-12-14T08:31:50;99432.50;;;7.73;100.00
77192;BME280;66172;48.526;8.078;2023-12-14T08:34:16;99437.09;;;7.73;100.00
77192;BME280;66172;48.526;8.078;2023-12-14T08:36:42;99453.34;;;7.73;100.00
77192;BME280;66172;48.526;8.078;2023-12-14T08:39:08;99451.59;;;7.77;100.00
77192;BME280;66172;48.526;8.078;2023-12-14T08:41:34;99458.28;;;7.79;100.00
77192;BME280;66172;48.526;8.078;2023-12-14T08:44:00;99464.00;;;7.78;100.00
77192;BME280;66172;48.526;8.078;2023-12-14T08:46:26;99462.56;;;7.72;100.00
77192;BME280;66172;48.526;8.078;2023-12-14T08:48:51;99476.75;;;7.69;100.00
77192;BME280;66172;48.526;8.078;2023-12-14T08:51:18;99478.50;;;7.73;100.00
77192;BME280;66172;48.526;8.078;2023-12-14T08:53:46;99482.94;;;7.61;100.00
77192;BME280;66172;48.526;8.078;2023-12-14T08:56:12;99491.72;;;7.66;100.00
77192;BME280;66172;48.526;8.078;2023-12-14T08:58:37;99492.81;;;7.65;100.00
77192;BME280;66172;48.526;8.078;2023-12-14T09:01:04;99503.34;;;7.67;100.00
77192;BME280;66172;48.526;8.078;2023-12-14T09:03:30;99506.50;;;7.69;100.00
77192;BME280;66172;48.526;8.078;2023-12-14T09:05:55;99514.31;;;7.70;100.00
77192;BME280;66172;48.526;8.078;2023-12-14T09:08:21;99512.09;;;7.72;100.00
77192;BME280;66172;48.526;8.078;2023-12-14T09:10:47;99525.16;;;7.79;100.00
77192;BME280;66172;48.526;8.078;2023-12-14T09:13:13;99529.63;;;7.83;100.00
77192;BME280;66172;48.526;8.078;2023-12-14T09:15:39;99528.81;;;7.83;100.00
77192;BME280;66172;48.526;8.078;2023-12-14T09:18:05;99532.16;;;7.88;100.00
77192;BME280;66172;48.526;8.078;2023-12-14T09:20:31;99538.19;;;7.85;100.00
77192;BME280;66172;48.526;8.078;2023-12-14T09:22:57;99544.75;;;7.93;100.00
77192;BME280;66172;48.526;8.078;2023-12-14T09:25:22;99556.69;;;8.00;100.00
77192;BME280;66172;48.526;8.078;2023-12-14T09:27:48;99548.09;;;7.90;100.00
77192;BME280;66172;48.526;8.078;2023-12-14T09:30:14;99560.53;;;7.91;100.00
77192;BME280;66172;48.526;8.078;2023-12-14T09:32:40;99559.72;;;7.90;100.00
77192;BME280;66172;48.526;8.078;2023-12-14T09:35:06;99566.88;;;7.86;100.00
77192;BME280;66172;48.526;8.078;2023-12-14T09:37:32;99567.50;;;7.92;100.00
77192;BME280;66172;48.526;8.078;2023-12-14T09:39:58;99572.13;;;8.00;100.00
77192;BME280;66172;48.526;8.078;2023-12-14T09:42:24;99580.59;;;8.07;100.00
77192;BME280;66172;48.526;8.078;2023-12-14T09:44:51;99588.72;;;8.16;100.00
77192;BME280;66172;48.526;8.078;2023-12-14T09:47:18;99593.34;;;8.15;100.00
77192;BME280;66172;48.526;8.078;2023-12-14T09:49:44;99593.63;;;8.14;100.00
77192;BME280;66172;48.526;8.078;2023-12-14T09:52:11;99603.03;;;8.08;100.00
77192;BME280;66172;48.526;8.078;2023-12-14T09:54:37;99603.84;;;8.08;100.00
77192;BME280;66172;48.526;8.078;2023-12-14T09:57:03;99606.53;;;8.17;100.00
77192;BME280;66172;48.526;8.078;2023-12-14T09:59:29;99600.81;;;8.18;100.00
77192;BME280;66172;48.526;8.078;2023-12-14T10:02:09;99612.94;;;8.12;100.00
77192;BME280;66172;48.526;8.078;2023-12-14T10:04:35;99616.59;;;8.08;100.00
77192;BME280;66172;48.526;8.078;2023-12-14T10:07:02;99616.91;;;8.15;100.00
77192;BME280;66172;48.526;8.078;2023-12-14T10:09:36;99621.69;;;8.09;100.00
77192;BME280;66172;48.526;8.078;2023-12-14T10:12:05;99630.44;;;8.06;100.00
77192;BME280;66172;48.526;8.078;2023-12-14T10:14:31;99627.88;;;8.10;100.00
77192;BME280;66172;48.526;8.078;2023-12-14T10:16:58;99641.59;;;8.13;100.00
77192;BME280;66172;48.526;8.078;2023-12-14T10:19:24;99640.81;;;8.13;100.00
77192;BME280;66172;48.526;8.078;2023-12-14T10:21:50;99648.78;;;8.26;100.00
77192;BME280;66172;48.526;8.078;2023-12-14T10:24:17;99651.38;;;8.40;100.00
77192;BME280;66172;48.526;8.078;2023-12-14T10:26:46;99645.78;;;8.45;100.00
77192;BME280;66172;48.526;8.078;2023-12-14T10:29:12;99658.41;;;8.58;100.00
77192;BME280;66172;48.526;8.078;2023-12-14T10:31:38;99656.16;;;8.60;100.00
77192;BME280;66172;48.526;8.078;2023-12-14T10:34:04;99654.84;;;8.66;100.00
77192;BME280;66172;48.526;8.078;2023-12-14T10:36:31;99658.06;;;8.68;100.00
77192;BME280;66172;48.526;8.078;2023-12-14T10:38:59;99656.94;;;8.78;100.00
77192;BME280;66172;48.526;8.078;2023-12-14T10:41:25;99653.56;;;8.89;100.00
77192;BME280;66172;48.526;8.078;2023-12-14T10:43:56;99658.50;;;8.96;100.00
77192;BME280;66172;48.526;8.078;2023-12-14T10:46:23;99653.88;;;8.96;100.00
77192;BME280;66172;48.526;8.078;2023-12-14T10:48:50;99658.34;;;8.84;100.00
77192;BME280;66172;48.526;8.078;2023-12-14T10:51:20;99657.84;;;8.90;100.00
77192;BME280;66172;48.526;8.078;2023-12-14T10:53:48;99674.28;;;9.02;100.00
77192;BME280;66172;48.526;8.078;2023-12-14T10:56:16;99670.78;;;8.93;100.00
77192;BME280;66172;48.526;8.078;2023-12-14T10:58:53;99676.84;;;8.90;100.00
77192;BME280;66172;48.526;8.078;2023-12-14T11:01:21;99692.94;;;8.87;100.00
77192;BME280;66172;48.526;8.078;2023-12-14T11:03:51;99694.25;;;8.89;100.00
77192;BME280;66172;48.526;8.078;2023-12-14T11:08:53;99703.97;;;8.90;100.00
77192;BME280;66172;48.526;8.078;2023-12-14T11:11:20;99700.94;;;8.83;100.00
77192;BME280;66172;48.526;8.078;2023-12-14T11:13:54;99708.13;;;8.88;100.00
77192;BME280;66172;48.526;8.078;2023-12-14T11:16:20;99706.84;;;8.85;100.00
77192;BME280;66172;48.526;8.078;2023-12-14T11:21:48;99709.88;;;8.92;100.00
77192;BME280;66172;48.526;8.078;2023-12-14T11:24:14;99704.59;;;8.96;100.00
77192;BME280;66172;48.526;8.078;2023-12-14T11:26:40;99713.06;;;8.94;100.00
77192;BME280;66172;48.526;8.078;2023-12-14T11:29:06;99714.16;;;9.02;100.00
77192;BME280;66172;48.526;8.078;2023-12-14T11:31:32;99722.16;;;8.98;100.00
77192;BME280;66172;48.526;8.078;2023-12-14T11:33:58;99725.34;;;9.00;100.00
77192;BME280;66172;48.526;8.078;2023-12-14T11:36:26;99725.31;;;9.09;100.00
77192;BME280;66172;48.526;8.078;2023-12-14T11:38:52;99723.06;;;9.20;99.50
77192;BME280;66172;48.526;8.078;2023-12-14T11:41:22;99736.63;;;9.20;99.89
77192;BME280;66172;48.526;8.078;2023-12-14T11:43:51;99737.94;;;9.14;100.00
77192;BME280;66172;48.526;8.078;2023-12-14T11:46:18;99735.72;;;9.07;100.00
77192;BME280;66172;48.526;8.078;2023-12-14T11:48:44;99741.44;;;9.06;100.00
77192;BME280;66172;48.526;8.078;2023-12-14T11:51:11;99733.47;;;9.00;100.00
77192;BME280;66172;48.526;8.078;2023-12-14T11:53:38;99737.78;;;9.01;100.00
77192;BME280;66172;48.526;8.078;2023-12-14T11:56:05;99730.94;;;8.95;100.00
77192;BME280;66172;48.526;8.078;2023-12-14T11:58:32;99730.59;;;9.06;100.00
77192;BME280;66172;48.526;8.078;2023-12-14T12:01:17;99742.72;;;9.08;100.00
77192;BME280;66172;48.526;8.078;2023-12-14T12:03:44;99739.03;;;9.13;100.00
77192;BME280;66172;48.526;8.078;2023-12-14T12:06:23;99739.84;;;9.13;100.00
77192;BME280;66172;48.526;8.078;2023-12-14T12:08:50;99739.69;;;9.01;100.00
77192;BME280;66172;48.526;8.078;2023-12-14T12:11:21;99737.31;;;8.99;100.00
77192;BME280;66172;48.526;8.078;2023-12-14T12:13:55;99740.03;;;8.99;100.00
77192;BME280;66172;48.526;8.078;2023-12-14T12:16:21;99742.41;;;9.01;100.00
77192;BME280;66172;48.526;8.078;2023-12-14T12:18:47;99745.94;;;8.93;100.00
77192;BME280;66172;48.526;8.078;2023-12-14T12:21:13;99739.84;;;8.87;100.00
77192;BME280;66172;48.526;8.078;2023-12-14T12:23:39;99748.00;;;8.87;100.00
77192;BME280;66172;48.526;8.078;2023-12-14T12:26:08;99753.25;;;8.84;100.00
77192;BME280;66172;48.526;8.078;2023-12-14T12:28:34;99758.03;;;8.87;100.00
77192;BME280;66172;48.526;8.078;2023-12-14T12:31:00;99752.47;;;8.92;100.00
77192;BME280;66172;48.526;8.078;2023-12-14T12:33:26;99756.63;;;8.89;100.00
77192;BME280;66172;48.526;8.078;2023-12-14T12:35:52;99747.69;;;8.89;100.00
77192;BME280;66172;48.526;8.078;2023-12-14T12:38:18;99757.41;;;8.90;100.00
77192;BME280;66172;48.526;8.078;2023-12-14T12:40:44;99750.84;;;8.91;100.00
77192;BME280;66172;48.526;8.078;2023-12-14T12:43:10;99752.44;;;8.83;100.00
77192;BME280;66172;48.526;8.078;2023-12-14T12:45:37;99749.44;;;8.85;100.00
77192;BME280;66172;48.526;8.078;2023-12-14T12:48:03;99755.00;;;8.80;100.00
77192;BME280;66172;48.526;8.078;2023-12-14T12:50:31;99755.66;;;8.77;100.00
77192;BME280;66172;48.526;8.078;2023-12-14T12:52:57;99766.03;;;8.75;100.00
77192;BME280;66172;48.526;8.078;2023-12-14T12:55:23;99761.72;;;8.74;100.00
77192;BME280;66172;48.526;8.078;2023-12-14T12:57:49;99770.78;;;8.69;100.00
77192;BME280;66172;48.526;8.078;2023-12-14T13:00:15;99765.53;;;8.64;100.00
77192;BME280;66172;48.526;8.078;2023-12-14T13:02:43;99779.56;;;8.58;100.00